ADDS METAR Data INFO
IDs: Format: Raw Decoded Include TAF

Data at: 2114 UTC 22 Oct 2017

KMZG 222055Z AUTO 07007G14KT 030V090 10SM FEW075 25/19 A3003 RMK A01
KMZG 222035Z AUTO VRB06G17KT 10SM FEW048 SCT070 25/19 A3004 RMK A01
KMZG 222015Z AUTO 06009G18KT 10SM FEW034 BKN046 BKN060 26/19 A3004 RMK A01
KMZG 221955Z AUTO 05014G23KT 10SM BKN043 BKN048 26/19 A3004 RMK A01
KMZG 221935Z AUTO 05018G28KT 10SM SCT030 BKN036 BKN050 25/19 A3004 RMK A01
KMZG 221915Z AUTO 04022G31KT 10SM OVC029 24/18 A3005 RMK A01
KMZG 221855Z AUTO 03028G34KT 10SM OVC027 23/17 A3006 RMK A01
KMZG 221835Z AUTO 03026G36KT 10SM FEW018 OVC026 22/17 A3007 RMK A01
KMZG 221815Z AUTO 03029G38KT 10SM SCT016 OVC025 22/18 A3007 RMK A01
KMZG 221755Z AUTO 03031G39KT 10SM SCT014 BKN018 BKN023 22/19 A3007 RMK A01
KMZG 221735Z AUTO 02034G40KT 2SM BR SCT010 SCT014 BKN019 21/19 A3007 RMK A01
KMZG 221715Z AUTO 02039G47KT 5SM HZ SCT010 BKN014 BKN043 22/20 A3007 RMK A01
KMZG 221655Z AUTO 32019KT 10SM SCT014 SCT085 28/25 A3006 RMK A01
KMZG 221635Z AUTO 32012KT 10SM FEW016 FEW085 28/26 A3006 RMK A01
KMZG 221615Z AUTO 31013KT 10SM SCT016 SCT021 29/26 A3005 RMK A01
KMZG 221555Z AUTO 30012KT 10SM SCT015 SCT021 29/25 A3004 RMK A01
KMZG 221535Z AUTO 29010KT 10SM FEW016 29/25 A3003 RMK A01
KMZG 221515Z AUTO 28010KT 10SM FEW015 FEW024 FEW038 28/26 A3002 RMK A01
KMZG 221455Z AUTO 26008KT 10SM SCT017 SCT022 SCT038 29/25 A3002 RMK A01
KMZG 221435Z AUTO 25007KT 10SM BKN016 BKN022 28/25 A3001 RMK A01
KMZG 221415Z AUTO 23008KT 10SM SCT016 28/25 A2999 RMK A01
KMZG 221355Z AUTO 22009KT 10SM CLR 28/25 A2999 RMK A01
KMZG 221335Z AUTO 23010KT 10SM CLR 28/25 A2998 RMK A01
KMZG 221315Z AUTO 22010KT 10SM CLR 28/25 A2998 RMK A01
KMZG 221255Z AUTO 22009KT 10SM CLR 28/25 A2997 RMK A01
KMZG 221235Z AUTO 19011KT 10SM CLR 28/25 A2996 RMK A01
KMZG 221215Z AUTO 19009KT 10SM CLR 27/25 A2996 RMK A01
KMZG 221155Z AUTO 21011KT 10SM FEW003 FEW018 27/24 A2996 RMK A01
KMZG 221135Z AUTO 20014KT 10SM CLR 28/25 A2994 RMK A01
KMZG 221115Z AUTO 20011KT 10SM CLR 28/25 A2995 RMK A01
KMZG 221055Z AUTO 19012KT 10SM CLR 28/25 A2995 RMK A01
KMZG 221035Z AUTO 18011G16KT 10SM CLR 28/25 A2995 RMK A01
KMZG 221015Z AUTO 17006G13KT 10SM FEW019 SCT024 SCT029 28/25 A2994 RMK A01
KMZG 220955Z AUTO 15007KT 10SM FEW019 28/25 A2993 RMK A01
KMZG 220935Z AUTO 15006KT 10SM SCT019 BKN024 BKN049 28/25 A2993 RMK A01
KMZG 220915Z AUTO 15008G14KT 10SM FEW018 SCT024 SCT049 28/25 A2993 RMK A01
KMZG 220855Z AUTO 15009G16KT 10SM FEW037 28/25 A2993 RMK A01
KMZG 220835Z AUTO 15008G17KT 10SM FEW022 SCT037 BKN049 28/25 A2993 RMK A01
KMZG 220815Z AUTO 15011G19KT 10SM FEW021 SCT028 BKN045 28/25 A2993 RMK A01
KMZG 220755Z AUTO 15010G17KT 10SM FEW021 SCT032 SCT040 28/25 A2993 RMK A01
KMZG 220735Z AUTO 15015G22KT 10SM SCT019 BKN024 BKN035 28/25 A2993 RMK A01
KMZG 220715Z AUTO 15007G19KT 10SM SCT019 SCT024 28/25 A2993 RMK A01
KMZG 220655Z AUTO 14011G20KT 10SM FEW019 28/25 A2992 RMK A01
KMZG 220635Z AUTO 15011G18KT 10SM FEW019 28/25 A2992 RMK A01
KMZG 220615Z AUTO 14013G20KT 10SM FEW019 FEW026 28/25 A2992 RMK A01
KMZG 220555Z AUTO 14014G20KT 10SM SCT019 28/25 A2992 RMK A01
KMZG 220535Z AUTO 15012G19KT 10SM FEW018 28/25 A2992 RMK A01
KMZG 220515Z AUTO 14014G21KT 10SM SCT019 SCT026 28/25 A2992 RMK A01
KMZG 220455Z AUTO 14011G20KT 10SM CLR 28/25 A2992 RMK A01
KMZG 220435Z AUTO 14013G22KT 10SM FEW021 28/25 A2992 RMK A01
KMZG 220415Z AUTO 14012G19KT 10SM CLR 28/25 A2992 RMK A01
KMZG 220355Z AUTO 14011G18KT 10SM FEW018 FEW026 28/25 A2992 RMK A01
KMZG 220335Z AUTO 14009G21KT 10SM FEW018 FEW026 28/25 A2992 RMK A01
KMZG 220315Z AUTO 14013KT 10SM FEW020 28/25 A2992 RMK A01
KMZG 220255Z AUTO 14010G19KT 10SM FEW020 FEW039 28/25 A2992 RMK A01
KMZG 220235Z AUTO 14009G16KT 10SM FEW018 FEW023 BKN032 28/25 A2992 RMK A01
KMZG 220215Z AUTO 14014G19KT 10SM FEW019 SCT024 BKN030 28/24 A2992 RMK A01
KMZG 220155Z AUTO 14009G15KT 10SM SCT019 SCT024 SCT034 28/25 A2991 RMK A01
KMZG 220135Z AUTO 14007G17KT 10SM FEW018 28/25 A2990 RMK A01
KMZG 220115Z AUTO 12016KT 10SM SCT017 28/25 A2989 RMK A01
KMZG 220055Z AUTO 12011G20KT 10SM CLR 28/25 A2988 RMK A01
KMZG 220035Z AUTO 14010G16KT 10SM CLR 28/24 A2989 RMK A01
KMZG 220015Z AUTO 12015KT 10SM CLR 28/25 A2988 RMK A01
KMZG 212355Z AUTO 14008G20KT 10SM FEW019 FEW026 FEW033 28/25 A2988 RMK A01
KMZG 212335Z AUTO 12013G19KT 10SM CLR 28/25 A2988 RMK A01
KMZG 212315Z AUTO 12019KT 10SM CLR 28/25 A2988 RMK A01
KMZG 212255Z AUTO 12019KT 10SM FEW018 28/25 A2988 RMK A01
KMZG 212235Z AUTO 12017KT 10SM SCT017 SCT031 28/25 A2988 RMK A01
KMZG 212215Z AUTO 12015KT 10SM FEW020 FEW028 FEW034 28/25 A2987 RMK A01
KMZG 212155Z AUTO 12016KT 10SM SCT017 SCT023 SCT031 29/25 A2987 RMK A01
KMZG 212135Z AUTO 13009G17KT 100V160 10SM FEW019 FEW024 29/25 A2987 RMK A01
KMZG 212115Z AUTO 14008G14KT 10SM SCT019 SCT026 SCT033 29/24 A2988 RMK A01
KMZG 212055Z AUTO 14010KT 10SM SCT019 SCT027 SCT034 29/25 A2987 RMK A01
KMZG 212035Z AUTO 14006G15KT 10SM FEW018 30/25 A2987 RMK A01
KMZG 212015Z AUTO 14010G18KT 10SM FEW018 29/25 A2987 RMK A01
KMZG 211955Z AUTO 14011KT 10SM FEW017 30/25 A2987 RMK A01
KMZG 211935Z AUTO 14010G16KT 10SM FEW017 29/25 A2988 RMK A01
KMZG 211915Z AUTO 14010KT 10SM FEW018 30/25 A2988 RMK A01
KMZG 211855Z AUTO 15011G16KT 10SM FEW018 29/24 A2989 RMK A01
KMZG 211835Z AUTO 15009KT 10SM CLR 30/24 A2990 RMK A01
KMZG 211815Z AUTO 15005G11KT 10SM CLR 30/24 A2991 RMK A01
KMZG 211755Z AUTO 15008KT 10SM FEW020 SCT032 SCT038 29/25 A2992 RMK A01
KMZG 211735Z AUTO 15006KT 9SM FEW017 SCT021 BKN031 29/25 A2993 RMK A01
KMZG 211715Z AUTO 15005KT 10SM FEW017 30/25 A2994 RMK A01
KMZG 211655Z AUTO 15006G12KT 10SM CLR 30/25 A2994 RMK A01
KMZG 211635Z AUTO 15006KT 10SM CLR 30/25 A2994 RMK A01
KMZG 211615Z AUTO VRB06KT 10SM CLR 30/25 A2994 RMK A01
KMZG 211555Z AUTO VRB05G12KT 10SM FEW018 FEW023 29/25 A2994 RMK A01
KMZG 211535Z AUTO 16007KT 10SM FEW018 FEW022 SCT036 29/25 A2993 RMK A01
KMZG 211515Z AUTO 15009G14KT 10SM FEW018 SCT036 SCT042 29/25 A2994 RMK A01
KMZG 211455Z AUTO 15007G15KT 10SM FEW018 29/25 A2993 RMK A01
KMZG 211435Z AUTO 15005G15KT 10SM CLR 29/25 A2993 RMK A01
KMZG 211415Z AUTO 15007KT 10SM FEW017 FEW030 SCT050 28/25 A2992 RMK A01
KMZG 211355Z AUTO 16006G13KT 6SM HZ FEW018 FEW028 SCT038 28/25 A2992 RMK A01
KMZG 211335Z AUTO 14007G13KT 10SM SCT019 SCT025 BKN034 28/25 A2991 RMK A01
KMZG 211315Z AUTO VRB06G16KT 10SM BKN018 BKN025 BKN032 28/25 A2991 RMK A01
KMZG 211255Z AUTO 15007KT 110V170 10SM FEW019 28/25 A2990 RMK A01
KMZG 211235Z AUTO 15008KT 10SM SCT018 SCT024 28/25 A2989 RMK A01
KMZG 211215Z AUTO 15008KT 10SM FEW017 FEW024 28/25 A2989 RMK A01
KMZG 211155Z AUTO 15008G13KT 10SM FEW019 28/25 A2989 RMK A01
KMZG 211135Z AUTO VRB06G12KT 10SM FEW018 28/25 A2989 RMK A01
KMZG 211115Z AUTO 15008G16KT 10SM FEW020 FEW026 28/25 A2988 RMK A01
KMZG 211055Z AUTO 15011G19KT 10SM FEW018 FEW024 28/25 A2987 RMK A01
KMZG 211035Z AUTO 14010G18KT 10SM FEW018 FEW030 28/25 A2987 RMK A01
KMZG 211015Z AUTO 15012G21KT 10SM SCT019 SCT025 SCT030 28/25 A2987 RMK A01
KMZG 210955Z AUTO 14012G19KT 10SM SCT018 SCT024 28/25 A2987 RMK A01
KMZG 210935Z AUTO 15011KT 10SM FEW018 27/24 A2987 RMK A01
KMZG 210915Z AUTO 14012G18KT 10SM FEW019 FEW023 28/24 A2987 RMK A01